sensor_id;sensor_type;location;lat;lon;timestamp;P1;durP1;ratioP1;P2;durP2;ratioP2
16153;SDS011;8182;55.648;13.208;2023-08-20T00:02:01;30.50;;;13.03;;
16153;SDS011;8182;55.648;13.208;2023-08-20T00:04:43;69.57;;;17.37;;
16153;SDS011;8182;55.648;13.208;2023-08-20T00:07:16;29.27;;;14.67;;
16153;SDS011;8182;55.648;13.208;2023-08-20T00:09:43;28.80;;;13.87;;
16153;SDS011;8182;55.648;13.208;2023-08-20T00:12:10;28.17;;;12.93;;
16153;SDS011;8182;55.648;13.208;2023-08-20T00:14:53;31.37;;;13.93;;
16153;SDS011;8182;55.648;13.208;2023-08-20T00:17:22;20.87;;;12.07;;
16153;SDS011;8182;55.648;13.208;2023-08-20T00:19:54;32.17;;;14.53;;
16153;SDS011;8182;55.648;13.208;2023-08-20T00:22:22;32.70;;;14.13;;
16153;SDS011;8182;55.648;13.208;2023-08-20T00:24:50;34.00;;;13.87;;
16153;SDS011;8182;55.648;13.208;2023-08-20T00:27:18;44.87;;;15.93;;
16153;SDS011;8182;55.648;13.208;2023-08-20T00:29:46;39.07;;;15.73;;
16153;SDS011;8182;55.648;13.208;2023-08-20T00:32:13;50.90;;;18.47;;
16153;SDS011;8182;55.648;13.208;2023-08-20T00:34:41;79.27;;;19.17;;
16153;SDS011;8182;55.648;13.208;2023-08-20T00:37:09;84.53;;;20.83;;
16153;SDS011;8182;55.648;13.208;2023-08-20T00:39:37;55.40;;;20.17;;
16153;SDS011;8182;55.648;13.208;2023-08-20T00:42:04;105.40;;;21.23;;
16153;SDS011;8182;55.648;13.208;2023-08-20T00:44:32;50.07;;;16.90;;
16153;SDS011;8182;55.648;13.208;2023-08-20T00:46:59;87.13;;;20.13;;
16153;SDS011;8182;55.648;13.208;2023-08-20T00:49:31;48.23;;;18.47;;
16153;SDS011;8182;55.648;13.208;2023-08-20T00:51:58;48.47;;;16.13;;
16153;SDS011;8182;55.648;13.208;2023-08-20T00:54:28;43.87;;;14.03;;
16153;SDS011;8182;55.648;13.208;2023-08-20T00:56:58;48.20;;;19.37;;
16153;SDS011;8182;55.648;13.208;2023-08-20T00:59:27;42.27;;;18.17;;
16153;SDS011;8182;55.648;13.208;2023-08-20T01:01:57;50.80;;;16.07;;
16153;SDS011;8182;55.648;13.208;2023-08-20T01:04:28;38.00;;;15.27;;
16153;SDS011;8182;55.648;13.208;2023-08-20T01:07:00;33.27;;;14.73;;
16153;SDS011;8182;55.648;13.208;2023-08-20T01:09:43;45.07;;;14.17;;
16153;SDS011;8182;55.648;13.208;2023-08-20T01:12:17;34.77;;;13.03;;
16153;SDS011;8182;55.648;13.208;2023-08-20T01:14:49;36.03;;;15.27;;
16153;SDS011;8182;55.648;13.208;2023-08-20T01:17:18;29.47;;;14.70;;
16153;SDS011;8182;55.648;13.208;2023-08-20T01:19:45;44.83;;;14.97;;
16153;SDS011;8182;55.648;13.208;2023-08-20T01:22:21;36.67;;;13.27;;
16153;SDS011;8182;55.648;13.208;2023-08-20T01:25:24;30.03;;;14.47;;
16153;SDS011;8182;55.648;13.208;2023-08-20T01:28:01;28.33;;;14.80;;
16153;SDS011;8182;55.648;13.208;2023-08-20T01:30:39;37.93;;;15.43;;
16153;SDS011;8182;55.648;13.208;2023-08-20T01:33:08;29.47;;;13.83;;
16153;SDS011;8182;55.648;13.208;2023-08-20T01:35:37;22.07;;;12.30;;
16153;SDS011;8182;55.648;13.208;2023-08-20T01:38:07;26.53;;;13.10;;
16153;SDS011;8182;55.648;13.208;2023-08-20T01:40:35;19.87;;;11.27;;
16153;SDS011;8182;55.648;13.208;2023-08-20T01:43:05;27.60;;;12.97;;
16153;SDS011;8182;55.648;13.208;2023-08-20T01:45:32;22.93;;;11.83;;
16153;SDS011;8182;55.648;13.208;2023-08-20T01:48:06;22.17;;;11.20;;
16153;SDS011;8182;55.648;13.208;2023-08-20T01:50:33;18.40;;;10.33;;
16153;SDS011;8182;55.648;13.208;2023-08-20T01:53:01;16.17;;;10.07;;
16153;SDS011;8182;55.648;13.208;2023-08-20T01:55:29;15.63;;;9.07;;
16153;SDS011;8182;55.648;13.208;2023-08-20T01:57:56;15.03;;;8.90;;
16153;SDS011;8182;55.648;13.208;2023-08-20T02:00:23;17.43;;;9.30;;
16153;SDS011;8182;55.648;13.208;2023-08-20T02:02:50;13.80;;;8.10;;
16153;SDS011;8182;55.648;13.208;2023-08-20T02:05:19;11.67;;;7.53;;
16153;SDS011;8182;55.648;13.208;2023-08-20T02:07:46;10.77;;;7.50;;
16153;SDS011;8182;55.648;13.208;2023-08-20T02:10:13;15.07;;;8.93;;
16153;SDS011;8182;55.648;13.208;2023-08-20T02:12:40;13.33;;;8.60;;
16153;SDS011;8182;55.648;13.208;2023-08-20T02:15:16;15.77;;;9.97;;
16153;SDS011;8182;55.648;13.208;2023-08-20T02:17:43;24.17;;;13.37;;
16153;SDS011;8182;55.648;13.208;2023-08-20T02:20:10;22.87;;;13.13;;
16153;SDS011;8182;55.648;13.208;2023-08-20T02:22:38;14.10;;;10.13;;
16153;SDS011;8182;55.648;13.208;2023-08-20T02:25:08;18.27;;;11.63;;
16153;SDS011;8182;55.648;13.208;2023-08-20T02:27:35;16.73;;;10.47;;
16153;SDS011;8182;55.648;13.208;2023-08-20T02:30:02;18.67;;;12.37;;
16153;SDS011;8182;55.648;13.208;2023-08-20T02:32:29;17.63;;;11.93;;
16153;SDS011;8182;55.648;13.208;2023-08-20T02:34:58;15.30;;;9.93;;
16153;SDS011;8182;55.648;13.208;2023-08-20T02:37:25;20.50;;;11.50;;
16153;SDS011;8182;55.648;13.208;2023-08-20T02:39:53;15.27;;;10.57;;
16153;SDS011;8182;55.648;13.208;2023-08-20T02:42:20;15.60;;;10.40;;
16153;SDS011;8182;55.648;13.208;2023-08-20T02:44:47;14.33;;;9.90;;
16153;SDS011;8182;55.648;13.208;2023-08-20T02:47:14;18.97;;;11.83;;
16153;SDS011;8182;55.648;13.208;2023-08-20T02:49:41;23.70;;;13.07;;
16153;SDS011;8182;55.648;13.208;2023-08-20T02:52:08;18.30;;;11.10;;
16153;SDS011;8182;55.648;13.208;2023-08-20T02:54:37;22.63;;;13.37;;
16153;SDS011;8182;55.648;13.208;2023-08-20T02:57:06;27.73;;;14.07;;
16153;SDS011;8182;55.648;13.208;2023-08-20T02:59:33;21.10;;;13.07;;
16153;SDS011;8182;55.648;13.208;2023-08-20T03:02:02;22.30;;;12.47;;
16153;SDS011;8182;55.648;13.208;2023-08-20T03:04:29;28.43;;;15.30;;
16153;SDS011;8182;55.648;13.208;2023-08-20T03:06:56;26.40;;;14.10;;
16153;SDS011;8182;55.648;13.208;2023-08-20T03:09:24;25.07;;;13.97;;
16153;SDS011;8182;55.648;13.208;2023-08-20T03:11:51;31.03;;;16.00;;
16153;SDS011;8182;55.648;13.208;2023-08-20T03:14:19;27.20;;;15.23;;
16153;SDS011;8182;55.648;13.208;2023-08-20T03:16:46;27.33;;;14.67;;
16153;SDS011;8182;55.648;13.208;2023-08-20T03:19:14;26.33;;;14.60;;
16153;SDS011;8182;55.648;13.208;2023-08-20T03:21:41;25.07;;;14.07;;
16153;SDS011;8182;55.648;13.208;2023-08-20T03:24:10;28.03;;;15.60;;
16153;SDS011;8182;55.648;13.208;2023-08-20T03:26:37;33.80;;;17.33;;
16153;SDS011;8182;55.648;13.208;2023-08-20T03:29:11;24.63;;;14.03;;
16153;SDS011;8182;55.648;13.208;2023-08-20T03:31:39;26.50;;;15.27;;
16153;SDS011;8182;55.648;13.208;2023-08-20T03:34:06;23.90;;;13.90;;
16153;SDS011;8182;55.648;13.208;2023-08-20T03:36:35;26.53;;;14.63;;
16153;SDS011;8182;55.648;13.208;2023-08-20T03:39:02;25.27;;;13.83;;
16153;SDS011;8182;55.648;13.208;2023-08-20T03:41:29;23.93;;;13.33;;
16153;SDS011;8182;55.648;13.208;2023-08-20T03:43:56;27.67;;;14.83;;
16153;SDS011;8182;55.648;13.208;2023-08-20T03:46:23;27.87;;;14.57;;
16153;SDS011;8182;55.648;13.208;2023-08-20T03:48:51;22.40;;;13.87;;
16153;SDS011;8182;55.648;13.208;2023-08-20T03:51:18;27.53;;;15.00;;
16153;SDS011;8182;55.648;13.208;2023-08-20T03:53:45;23.83;;;13.83;;
16153;SDS011;8182;55.648;13.208;2023-08-20T03:56:12;29.07;;;15.20;;
16153;SDS011;8182;55.648;13.208;2023-08-20T03:58:41;23.43;;;13.77;;
16153;SDS011;8182;55.648;13.208;2023-08-20T04:01:08;27.60;;;14.03;;
16153;SDS011;8182;55.648;13.208;2023-08-20T04:03:35;24.57;;;14.30;;
16153;SDS011;8182;55.648;13.208;2023-08-20T04:06:03;30.00;;;15.30;;
16153;SDS011;8182;55.648;13.208;2023-08-20T04:08:32;31.50;;;16.57;;
16153;SDS011;8182;55.648;13.208;2023-08-20T04:11:08;25.07;;;13.97;;
16153;SDS011;8182;55.648;13.208;2023-08-20T04:13:35;21.97;;;13.23;;
16153;SDS011;8182;55.648;13.208;2023-08-20T04:16:02;24.33;;;14.27;;
16153;SDS011;8182;55.648;13.208;2023-08-20T04:18:29;22.53;;;13.37;;
16153;SDS011;8182;55.648;13.208;2023-08-20T04:20:56;24.73;;;13.60;;
16153;SDS011;8182;55.648;13.208;2023-08-20T04:23:24;24.40;;;14.13;;
16153;SDS011;8182;55.648;13.208;2023-08-20T04:25:51;29.50;;;14.77;;
16153;SDS011;8182;55.648;13.208;2023-08-20T04:28:21;21.67;;;12.60;;
16153;SDS011;8182;55.648;13.208;2023-08-20T04:30:48;27.00;;;13.33;;
16153;SDS011;8182;55.648;13.208;2023-08-20T04:33:19;32.20;;;15.50;;
16153;SDS011;8182;55.648;13.208;2023-08-20T04:35:46;24.73;;;13.30;;
16153;SDS011;8182;55.648;13.208;2023-08-20T04:38:15;29.57;;;14.27;;
16153;SDS011;8182;55.648;13.208;2023-08-20T04:40:44;27.87;;;13.80;;
16153;SDS011;8182;55.648;13.208;2023-08-20T04:43:12;27.63;;;13.97;;
16153;SDS011;8182;55.648;13.208;2023-08-20T04:45:39;23.07;;;12.83;;
16153;SDS011;8182;55.648;13.208;2023-08-20T04:48:07;24.10;;;13.13;;
16153;SDS011;8182;55.648;13.208;2023-08-20T04:50:34;24.50;;;13.30;;
16153;SDS011;8182;55.648;13.208;2023-08-20T04:53:00;20.30;;;12.00;;
16153;SDS011;8182;55.648;13.208;2023-08-20T04:55:27;19.67;;;11.67;;
16153;SDS011;8182;55.648;13.208;2023-08-20T04:57:56;21.17;;;12.57;;
16153;SDS011;8182;55.648;13.208;2023-08-20T05:00:23;23.23;;;12.03;;
16153;SDS011;8182;55.648;13.208;2023-08-20T05:02:50;23.43;;;13.30;;
16153;SDS011;8182;55.648;13.208;2023-08-20T05:05:17;23.97;;;12.07;;
16153;SDS011;8182;55.648;13.208;2023-08-20T05:07:44;28.93;;;13.57;;
16153;SDS011;8182;55.648;13.208;2023-08-20T05:10:17;24.60;;;12.30;;
16153;SDS011;8182;55.648;13.208;2023-08-20T05:12:44;33.03;;;14.73;;
16153;SDS011;8182;55.648;13.208;2023-08-20T05:15:15;29.43;;;13.17;;
16153;SDS011;8182;55.648;13.208;2023-08-20T05:17:42;27.03;;;14.07;;
16153;SDS011;8182;55.648;13.208;2023-08-20T05:20:10;28.93;;;14.50;;
16153;SDS011;8182;55.648;13.208;2023-08-20T05:22:37;25.50;;;13.73;;
16153;SDS011;8182;55.648;13.208;2023-08-20T05:25:06;29.03;;;14.77;;
16153;SDS011;8182;55.648;13.208;2023-08-20T05:27:34;25.83;;;13.63;;
16153;SDS011;8182;55.648;13.208;2023-08-20T05:30:01;27.50;;;13.63;;
16153;SDS011;8182;55.648;13.208;2023-08-20T05:32:30;24.57;;;12.87;;
16153;SDS011;8182;55.648;13.208;2023-08-20T05:34:57;22.53;;;12.13;;
16153;SDS011;8182;55.648;13.208;2023-08-20T05:37:24;22.93;;;12.10;;
16153;SDS011;8182;55.648;13.208;2023-08-20T05:39:50;23.83;;;12.67;;
16153;SDS011;8182;55.648;13.208;2023-08-20T05:42:17;26.20;;;13.40;;
16153;SDS011;8182;55.648;13.208;2023-08-20T05:44:44;19.33;;;12.10;;
16153;SDS011;8182;55.648;13.208;2023-08-20T05:47:11;20.77;;;11.30;;
16153;SDS011;8182;55.648;13.208;2023-08-20T05:49:40;19.23;;;11.50;;
16153;SDS011;8182;55.648;13.208;2023-08-20T05:52:10;21.57;;;12.00;;
16153;SDS011;8182;55.648;13.208;2023-08-20T05:54:38;15.23;;;9.90;;
16153;SDS011;8182;55.648;13.208;2023-08-20T05:57:06;15.77;;;9.23;;
16153;SDS011;8182;55.648;13.208;2023-08-20T05:59:37;14.50;;;9.90;;
16153;SDS011;8182;55.648;13.208;2023-08-20T06:02:10;20.13;;;11.40;;
16153;SDS011;8182;55.648;13.208;2023-08-20T06:04:43;17.80;;;10.63;;
16153;SDS011;8182;55.648;13.208;2023-08-20T06:07:13;16.30;;;9.67;;
16153;SDS011;8182;55.648;13.208;2023-08-20T06:09:44;16.20;;;10.10;;
16153;SDS011;8182;55.648;13.208;2023-08-20T06:12:15;16.27;;;9.67;;
16153;SDS011;8182;55.648;13.208;2023-08-20T06:14:42;14.23;;;9.30;;
16153;SDS011;8182;55.648;13.208;2023-08-20T06:17:11;13.03;;;8.73;;
16153;SDS011;8182;55.648;13.208;2023-08-20T06:19:38;12.83;;;8.77;;
16153;SDS011;8182;55.648;13.208;2023-08-20T06:22:07;10.40;;;8.50;;
16153;SDS011;8182;55.648;13.208;2023-08-20T06:24:35;10.93;;;8.00;;
16153;SDS011;8182;55.648;13.208;2023-08-20T06:27:06;11.37;;;8.60;;
16153;SDS011;8182;55.648;13.208;2023-08-20T06:29:33;13.27;;;8.77;;
16153;SDS011;8182;55.648;13.208;2023-08-20T06:32:09;11.53;;;8.13;;
16153;SDS011;8182;55.648;13.208;2023-08-20T06:34:36;10.73;;;8.27;;
16153;SDS011;8182;55.648;13.208;2023-08-20T06:37:08;10.30;;;7.70;;
16153;SDS011;8182;55.648;13.208;2023-08-20T06:39:36;9.67;;;7.77;;
16153;SDS011;8182;55.648;13.208;2023-08-20T06:42:06;8.70;;;7.17;;
16153;SDS011;8182;55.648;13.208;2023-08-20T06:44:33;10.20;;;6.90;;
16153;SDS011;8182;55.648;13.208;2023-08-20T06:47:01;7.90;;;6.73;;
16153;SDS011;8182;55.648;13.208;2023-08-20T06:49:31;9.17;;;7.50;;
16153;SDS011;8182;55.648;13.208;2023-08-20T06:52:00;8.20;;;7.17;;
16153;SDS011;8182;55.648;13.208;2023-08-20T06:54:30;7.87;;;7.07;;
16153;SDS011;8182;55.648;13.208;2023-08-20T06:56:57;8.77;;;7.00;;
16153;SDS011;8182;55.648;13.208;2023-08-20T06:59:24;6.40;;;5.80;;
16153;SDS011;8182;55.648;13.208;2023-08-20T07:01:55;5.77;;;5.27;;
16153;SDS011;8182;55.648;13.208;2023-08-20T07:04:22;7.90;;;7.10;;
16153;SDS011;8182;55.648;13.208;2023-08-20T07:06:50;5.80;;;5.30;;
16153;SDS011;8182;55.648;13.208;2023-08-20T07:09:17;5.77;;;5.27;;
16153;SDS011;8182;55.648;13.208;2023-08-20T07:11:46;6.43;;;5.00;;
16153;SDS011;8182;55.648;13.208;2023-08-20T07:14:12;6.27;;;5.13;;
16153;SDS011;8182;55.648;13.208;2023-08-20T07:16:39;5.80;;;5.30;;
16153;SDS011;8182;55.648;13.208;2023-08-20T07:19:06;5.80;;;5.20;;
16153;SDS011;8182;55.648;13.208;2023-08-20T07:21:36;6.13;;;5.10;;
16153;SDS011;8182;55.648;13.208;2023-08-20T07:24:09;6.27;;;5.30;;
16153;SDS011;8182;55.648;13.208;2023-08-20T07:26:36;6.00;;;4.97;;
16153;SDS011;8182;55.648;13.208;2023-08-20T07:29:08;6.37;;;5.77;;
16153;SDS011;8182;55.648;13.208;2023-08-20T07:31:38;6.17;;;5.67;;
16153;SDS011;8182;55.648;13.208;2023-08-20T07:34:11;6.63;;;5.77;;
16153;SDS011;8182;55.648;13.208;2023-08-20T07:36:38;6.17;;;5.57;;
16153;SDS011;8182;55.648;13.208;2023-08-20T07:39:08;5.77;;;5.10;;
16153;SDS011;8182;55.648;13.208;2023-08-20T07:41:35;5.90;;;5.40;;
16153;SDS011;8182;55.648;13.208;2023-08-20T07:44:02;6.40;;;5.80;;
16153;SDS011;8182;55.648;13.208;2023-08-20T07:46:37;6.10;;;5.50;;
16153;SDS011;8182;55.648;13.208;2023-08-20T07:49:04;6.27;;;5.10;;
16153;SDS011;8182;55.648;13.208;2023-08-20T07:51:34;5.60;;;5.10;;
16153;SDS011;8182;55.648;13.208;2023-08-20T07:54:05;6.40;;;5.80;;
16153;SDS011;8182;55.648;13.208;2023-08-20T07:56:32;7.07;;;6.37;;
16153;SDS011;8182;55.648;13.208;2023-08-20T07:58:59;6.13;;;5.57;;
16153;SDS011;8182;55.648;13.208;2023-08-20T08:01:31;6.60;;;5.90;;
16153;SDS011;8182;55.648;13.208;2023-08-20T08:03:59;6.50;;;5.80;;
16153;SDS011;8182;55.648;13.208;2023-08-20T08:06:28;6.27;;;5.67;;
16153;SDS011;8182;55.648;13.208;2023-08-20T08:11:48;6.97;;;6.37;;
16153;SDS011;8182;55.648;13.208;2023-08-20T08:14:15;8.97;;;7.20;;
16153;SDS011;8182;55.648;13.208;2023-08-20T08:16:43;8.00;;;7.20;;
16153;SDS011;8182;55.648;13.208;2023-08-20T08:19:12;8.27;;;7.43;;
16153;SDS011;8182;55.648;13.208;2023-08-20T08:21:41;7.27;;;6.67;;
16153;SDS011;8182;55.648;13.208;2023-08-20T08:24:11;7.63;;;6.83;;
16153;SDS011;8182;55.648;13.208;2023-08-20T08:26:39;7.67;;;6.87;;
16153;SDS011;8182;55.648;13.208;2023-08-20T08:29:07;10.03;;;7.60;;
16153;SDS011;8182;55.648;13.208;2023-08-20T08:31:38;8.23;;;7.43;;
16153;SDS011;8182;55.648;13.208;2023-08-20T08:34:06;7.33;;;6.20;;
16153;SDS011;8182;55.648;13.208;2023-08-20T08:36:41;7.93;;;6.87;;
16153;SDS011;8182;55.648;13.208;2023-08-20T08:39:09;8.30;;;7.10;;
16153;SDS011;8182;55.648;13.208;2023-08-20T08:41:37;9.00;;;7.43;;
16153;SDS011;8182;55.648;13.208;2023-08-20T08:44:06;8.63;;;7.40;;
16153;SDS011;8182;55.648;13.208;2023-08-20T08:46:38;10.17;;;8.33;;
16153;SDS011;8182;55.648;13.208;2023-08-20T08:49:06;11.50;;;8.20;;
16153;SDS011;8182;55.648;13.208;2023-08-20T08:51:45;9.23;;;8.33;;
16153;SDS011;8182;55.648;13.208;2023-08-20T08:54:16;9.90;;;8.50;;
16153;SDS011;8182;55.648;13.208;2023-08-20T08:56:44;11.67;;;9.10;;
16153;SDS011;8182;55.648;13.208;2023-08-20T08:59:12;12.87;;;8.90;;
16153;SDS011;8182;55.648;13.208;2023-08-20T09:01:39;12.03;;;8.80;;
16153;SDS011;8182;55.648;13.208;2023-08-20T09:04:16;12.10;;;9.40;;
16153;SDS011;8182;55.648;13.208;2023-08-20T09:06:48;15.00;;;10.00;;
16153;SDS011;8182;55.648;13.208;2023-08-20T09:09:17;15.20;;;10.40;;
16153;SDS011;8182;55.648;13.208;2023-08-20T09:11:44;12.80;;;9.60;;
16153;SDS011;8182;55.648;13.208;2023-08-20T09:14:20;14.27;;;9.93;;
16153;SDS011;8182;55.648;13.208;2023-08-20T09:16:53;16.63;;;10.57;;
16153;SDS011;8182;55.648;13.208;2023-08-20T09:19:22;13.50;;;9.60;;
16153;SDS011;8182;55.648;13.208;2023-08-20T09:21:50;11.53;;;9.13;;
16153;SDS011;8182;55.648;13.208;2023-08-20T09:24:25;14.03;;;9.10;;
16153;SDS011;8182;55.648;13.208;2023-08-20T09:26:58;13.20;;;9.83;;
16153;SDS011;8182;55.648;13.208;2023-08-20T09:29:25;12.90;;;10.23;;
16153;SDS011;8182;55.648;13.208;2023-08-20T09:31:51;9.80;;;8.80;;
16153;SDS011;8182;55.648;13.208;2023-08-20T09:34:31;8.40;;;7.60;;
16153;SDS011;8182;55.648;13.208;2023-08-20T09:37:05;8.03;;;7.23;;
16153;SDS011;8182;55.648;13.208;2023-08-20T09:39:34;8.20;;;7.40;;
16153;SDS011;8182;55.648;13.208;2023-08-20T09:42:01;7.90;;;7.20;;
16153;SDS011;8182;55.648;13.208;2023-08-20T09:44:32;7.67;;;6.97;;
16153;SDS011;8182;55.648;13.208;2023-08-20T09:47:01;8.37;;;7.40;;
16153;SDS011;8182;55.648;13.208;2023-08-20T09:49:29;8.23;;;7.37;;
16153;SDS011;8182;55.648;13.208;2023-08-20T09:51:59;11.30;;;8.57;;
16153;SDS011;8182;55.648;13.208;2023-08-20T09:54:35;10.40;;;8.60;;
16153;SDS011;8182;55.648;13.208;2023-08-20T09:57:21;9.45;;;8.27;;
16153;SDS011;8182;55.648;13.208;2023-08-20T09:59:53;8.97;;;7.63;;
16153;SDS011;8182;55.648;13.208;2023-08-20T10:02:21;11.77;;;8.50;;
16153;SDS011;8182;55.648;13.208;2023-08-20T10:04:48;10.60;;;8.93;;
16153;SDS011;8182;55.648;13.208;2023-08-20T10:07:17;12.03;;;8.80;;
16153;SDS011;8182;55.648;13.208;2023-08-20T10:09:45;11.27;;;9.40;;
16153;SDS011;8182;55.648;13.208;2023-08-20T10:12:15;10.97;;;8.43;;
16153;SDS011;8182;55.648;13.208;2023-08-20T10:14:46;10.00;;;8.03;;
16153;SDS011;8182;55.648;13.208;2023-08-20T10:17:13;10.53;;;8.03;;
16153;SDS011;8182;55.648;13.208;2023-08-20T10:19:40;9.73;;;7.60;;
16153;SDS011;8182;55.648;13.208;2023-08-20T10:22:08;9.37;;;7.57;;
16153;SDS011;8182;55.648;13.208;2023-08-20T10:24:48;11.40;;;8.37;;
16153;SDS011;8182;55.648;13.208;2023-08-20T10:27:23;10.30;;;8.00;;
16153;SDS011;8182;55.648;13.208;2023-08-20T10:29:52;12.20;;;9.03;;
16153;SDS011;8182;55.648;13.208;2023-08-20T10:32:20;11.00;;;8.73;;
16153;SDS011;8182;55.648;13.208;2023-08-20T10:35:07;12.90;;;8.83;;
16153;SDS011;8182;55.648;13.208;2023-08-20T10:37:35;19.67;;;11.60;;
16153;SDS011;8182;55.648;13.208;2023-08-20T10:40:04;21.97;;;13.13;;
16153;SDS011;8182;55.648;13.208;2023-08-20T10:42:33;19.93;;;13.40;;
16153;SDS011;8182;55.648;13.208;2023-08-20T10:45:09;27.73;;;14.90;;
16153;SDS011;8182;55.648;13.208;2023-08-20T10:47:47;37.80;;;18.07;;
16153;SDS011;8182;55.648;13.208;2023-08-20T10:50:15;35.90;;;17.20;;
16153;SDS011;8182;55.648;13.208;2023-08-20T10:52:47;35.37;;;17.17;;
16153;SDS011;8182;55.648;13.208;2023-08-20T10:55:17;27.03;;;16.27;;
16153;SDS011;8182;55.648;13.208;2023-08-20T10:57:54;27.30;;;15.43;;
16153;SDS011;8182;55.648;13.208;2023-08-20T11:00:21;27.67;;;16.07;;
16153;SDS011;8182;55.648;13.208;2023-08-20T11:02:49;27.20;;;15.80;;
16153;SDS011;8182;55.648;13.208;2023-08-20T11:05:16;23.90;;;15.37;;
16153;SDS011;8182;55.648;13.208;2023-08-20T11:07:45;25.77;;;15.03;;
16153;SDS011;8182;55.648;13.208;2023-08-20T11:10:18;24.37;;;15.53;;
16153;SDS011;8182;55.648;13.208;2023-08-20T11:12:46;20.77;;;12.77;;
16153;SDS011;8182;55.648;13.208;2023-08-20T11:15:13;16.63;;;12.63;;
16153;SDS011;8182;55.648;13.208;2023-08-20T11:17:40;20.30;;;13.80;;
16153;SDS011;8182;55.648;13.208;2023-08-20T11:20:08;23.20;;;13.17;;
16153;SDS011;8182;55.648;13.208;2023-08-20T11:22:38;20.87;;;13.00;;
16153;SDS011;8182;55.648;13.208;2023-08-20T11:25:09;22.77;;;12.67;;
16153;SDS011;8182;55.648;13.208;2023-08-20T11:27:42;22.57;;;12.13;;
16153;SDS011;8182;55.648;13.208;2023-08-20T11:30:11;17.33;;;11.37;;
16153;SDS011;8182;55.648;13.208;2023-08-20T11:32:39;24.97;;;14.00;;
16153;SDS011;8182;55.648;13.208;2023-08-20T11:35:15;16.53;;;9.93;;
16153;SDS011;8182;55.648;13.208;2023-08-20T11:37:43;12.43;;;9.50;;
16153;SDS011;8182;55.648;13.208;2023-08-20T11:40:10;13.50;;;8.60;;
16153;SDS011;8182;55.648;13.208;2023-08-20T11:42:37;11.00;;;9.10;;
16153;SDS011;8182;55.648;13.208;2023-08-20T11:45:09;11.60;;;8.57;;
16153;SDS011;8182;55.648;13.208;2023-08-20T11:47:38;10.87;;;7.93;;
16153;SDS011;8182;55.648;13.208;2023-08-20T11:50:07;11.87;;;8.47;;
16153;SDS011;8182;55.648;13.208;2023-08-20T11:52:40;9.17;;;7.17;;
16153;SDS011;8182;55.648;13.208;2023-08-20T11:55:21;7.73;;;6.30;;
16153;SDS011;8182;55.648;13.208;2023-08-20T11:57:53;9.20;;;6.93;;
16153;SDS011;8182;55.648;13.208;2023-08-20T12:00:25;7.20;;;5.73;;
16153;SDS011;8182;55.648;13.208;2023-08-20T12:03:00;6.10;;;5.50;;
16153;SDS011;8182;55.648;13.208;2023-08-20T12:05:29;6.50;;;5.60;;
16153;SDS011;8182;55.648;13.208;2023-08-20T12:08:09;7.17;;;6.20;;
16153;SDS011;8182;55.648;13.208;2023-08-20T12:10:42;6.43;;;5.87;;
16153;SDS011;8182;55.648;13.208;2023-08-20T12:13:10;8.20;;;6.07;;
16153;SDS011;8182;55.648;13.208;2023-08-20T12:15:54;11.33;;;6.43;;
16153;SDS011;8182;55.648;13.208;2023-08-20T12:18:21;9.67;;;7.53;;
16153;SDS011;8182;55.648;13.208;2023-08-20T12:20:48;9.60;;;6.87;;
16153;SDS011;8182;55.648;13.208;2023-08-20T12:23:18;10.23;;;6.93;;
16153;SDS011;8182;55.648;13.208;2023-08-20T12:25:49;11.00;;;6.63;;
16153;SDS011;8182;55.648;13.208;2023-08-20T12:28:16;13.50;;;7.17;;
16153;SDS011;8182;55.648;13.208;2023-08-20T12:30:46;10.73;;;6.70;;
16153;SDS011;8182;55.648;13.208;2023-08-20T12:33:29;12.07;;;7.23;;
16153;SDS011;8182;55.648;13.208;2023-08-20T12:35:57;10.47;;;6.17;;
16153;SDS011;8182;55.648;13.208;2023-08-20T12:38:24;9.33;;;6.87;;
16153;SDS011;8182;55.648;13.208;2023-08-20T12:40:51;8.03;;;6.00;;
16153;SDS011;8182;55.648;13.208;2023-08-20T12:43:18;12.97;;;6.40;;
16153;SDS011;8182;55.648;13.208;2023-08-20T12:45:46;7.50;;;5.40;;
16153;SDS011;8182;55.648;13.208;2023-08-20T12:48:14;10.80;;;5.80;;
16153;SDS011;8182;55.648;13.208;2023-08-20T12:50:41;10.87;;;5.80;;
16153;SDS011;8182;55.648;13.208;2023-08-20T12:53:08;7.60;;;5.40;;
16153;SDS011;8182;55.648;13.208;2023-08-20T12:55:38;10.10;;;5.43;;
16153;SDS011;8182;55.648;13.208;2023-08-20T12:58:05;9.57;;;5.33;;
16153;SDS011;8182;55.648;13.208;2023-08-20T13:00:32;8.77;;;5.40;;
16153;SDS011;8182;55.648;13.208;2023-08-20T13:03:01;9.77;;;5.23;;
16153;SDS011;8182;55.648;13.208;2023-08-20T13:05:29;8.30;;;4.90;;
16153;SDS011;8182;55.648;13.208;2023-08-20T13:07:57;9.00;;;5.20;;
16153;SDS011;8182;55.648;13.208;2023-08-20T13:10:25;10.13;;;5.03;;
16153;SDS011;8182;55.648;13.208;2023-08-20T13:12:54;8.57;;;5.20;;
16153;SDS011;8182;55.648;13.208;2023-08-20T13:15:29;9.50;;;5.30;;
16153;SDS011;8182;55.648;13.208;2023-08-20T13:17:57;9.10;;;4.90;;
16153;SDS011;8182;55.648;13.208;2023-08-20T13:20:25;10.73;;;5.07;;
16153;SDS011;8182;55.648;13.208;2023-08-20T13:22:52;11.93;;;4.77;;
16153;SDS011;8182;55.648;13.208;2023-08-20T13:25:19;8.47;;;4.47;;
16153;SDS011;8182;55.648;13.208;2023-08-20T13:27:47;6.87;;;4.30;;
16153;SDS011;8182;55.648;13.208;2023-08-20T13:30:14;6.40;;;3.93;;
16153;SDS011;8182;55.648;13.208;2023-08-20T13:32:43;8.03;;;4.40;;
16153;SDS011;8182;55.648;13.208;2023-08-20T13:35:10;7.43;;;3.80;;
16153;SDS011;8182;55.648;13.208;2023-08-20T13:37:38;7.67;;;3.70;;
16153;SDS011;8182;55.648;13.208;2023-08-20T13:40:06;6.57;;;3.70;;
16153;SDS011;8182;55.648;13.208;2023-08-20T13:42:34;7.67;;;3.80;;
16153;SDS011;8182;55.648;13.208;2023-08-20T13:45:02;7.67;;;3.23;;
16153;SDS011;8182;55.648;13.208;2023-08-20T13:47:29;5.67;;;3.50;;
16153;SDS011;8182;55.648;13.208;2023-08-20T13:49:56;7.30;;;3.50;;
16153;SDS011;8182;55.648;13.208;2023-08-20T13:52:23;7.03;;;3.33;;
16153;SDS011;8182;55.648;13.208;2023-08-20T13:54:51;7.00;;;3.33;;
16153;SDS011;8182;55.648;13.208;2023-08-20T13:57:18;7.70;;;3.40;;
16153;SDS011;8182;55.648;13.208;2023-08-20T13:59:45;5.53;;;2.90;;
16153;SDS011;8182;55.648;13.208;2023-08-20T14:02:18;8.10;;;3.00;;
16153;SDS011;8182;55.648;13.208;2023-08-20T14:04:44;5.73;;;2.80;;
16153;SDS011;8182;55.648;13.208;2023-08-20T14:07:17;6.97;;;3.57;;
16153;SDS011;8182;55.648;13.208;2023-08-20T14:09:44;6.77;;;2.87;;
16153;SDS011;8182;55.648;13.208;2023-08-20T14:12:12;7.97;;;2.97;;
16153;SDS011;8182;55.648;13.208;2023-08-20T14:14:39;6.63;;;3.10;;
16153;SDS011;8182;55.648;13.208;2023-08-20T14:17:06;7.27;;;3.07;;
16153;SDS011;8182;55.648;13.208;2023-08-20T14:19:34;9.60;;;3.40;;
16153;SDS011;8182;55.648;13.208;2023-08-20T14:22:01;6.90;;;3.10;;
16153;SDS011;8182;55.648;13.208;2023-08-20T14:24:27;7.37;;;3.67;;
16153;SDS011;8182;55.648;13.208;2023-08-20T14:26:54;4.67;;;3.00;;
16153;SDS011;8182;55.648;13.208;2023-08-20T14:29:22;9.00;;;3.57;;
16153;SDS011;8182;55.648;13.208;2023-08-20T14:31:49;6.87;;;3.03;;
16153;SDS011;8182;55.648;13.208;2023-08-20T14:34:16;7.30;;;3.07;;
16153;SDS011;8182;55.648;13.208;2023-08-20T14:36:43;5.87;;;3.43;;
16153;SDS011;8182;55.648;13.208;2023-08-20T14:39:10;8.17;;;3.00;;
16153;SDS011;8182;55.648;13.208;2023-08-20T14:41:38;6.43;;;3.20;;
16153;SDS011;8182;55.648;13.208;2023-08-20T14:44:05;6.63;;;3.30;;
16153;SDS011;8182;55.648;13.208;2023-08-20T14:46:33;6.53;;;3.13;;
16153;SDS011;8182;55.648;13.208;2023-08-20T14:49:04;7.57;;;3.10;;